Shady Grove, Illinois
Current Conditions -  °F | °C
As of 1:15 PM on Monday 22 Dec 2014 (Local Time) from KM30 Reporting Station
Moderate Rain Moderate Rain  
Wind Chill: 46°   Ceiling: 1100
Heat Index: 49°   Visibility: 5mi
Dew Point: 49°   Wind: 8mph
Humidity: 100%   Direction: 120°ESE
Pressure: 29.67"   Gusts: NA
Location:  37.1362°N, 88.5694°W
Report Text: KM30 221915Z AUTO 12007KT 5SM RA OVC011 10/10 A2967 RMK AO2 P0001 T00950095
Loading
Personal Weather Stations






























Interactive Weather Map New forecast layout! Learn more

10-Day Weather Forecast

Advertisements
Track Severe Weather on mobile